Time;durP1;ratioP1;P1;durP2;ratioP2;P2;SDS_P1;SDS_P2;PMS_P1;PMS_P2;Temp;Humidity;BMP_temperature;BMP_pressure;BME280_temperature;BME280_humidity;BME280_pressure;Samples;Min_cycle;Max_cycle;Signal;HPM_P1;HPM_P2
2023/12/14 00:02:18;;;;;;;14.73;6.95;;;;;;;;;;4861277;29;20053;-70
2023/12/14 00:04:44;;;;;;;15.95;6.53;;;;;;;;;;4869759;29;20040;-70
2023/12/14 00:07:14;;;;;;;11.88;6.85;;;;;;;;;;4869623;29;20048;-70
2023/12/14 00:09:40;;;;;;;18.08;6.70;;;;;;;;;;4872055;29;20048;-70
2023/12/14 00:12:06;;;;;;;13.52;6.38;;;;;;;;;;4872481;29;20106;-70
2023/12/14 00:14:32;;;;;;;14.18;6.30;;;;;;;;;;4871614;29;20044;-70
2023/12/14 00:16:59;;;;;;;14.48;7.07;;;;;;;;;;4866436;29;20402;-70
2023/12/14 00:19:25;;;;;;;14.55;6.68;;;;;;;;;;4884350;29;20177;-70
2023/12/14 00:21:51;;;;;;;14.88;6.65;;;;;;;;;;4866460;29;20057;-70
2023/12/14 00:24:17;;;;;;;11.25;6.70;;;;;;;;;;4880550;29;20079;-70
2023/12/14 00:26:43;;;;;;;13.10;6.53;;;;;;;;;;4867481;29;20059;-70
2023/12/14 00:29:11;;;;;;;11.48;6.68;;;;;;;;;;4879546;29;20124;-70
2023/12/14 00:31:38;;;;;;;13.05;7.72;;;;;;;;;;4876959;29;20173;-70
2023/12/14 00:34:04;;;;;;;11.50;6.78;;;;;;;;;;4859089;29;20140;-70
2023/12/14 00:36:30;;;;;;;13.27;6.70;;;;;;;;;;4861461;29;20228;-70
2023/12/14 00:38:56;;;;;;;12.65;6.72;;;;;;;;;;4858875;29;20100;-70
2023/12/14 00:41:22;;;;;;;11.45;5.88;;;;;;;;;;4865487;29;20413;-70
2023/12/14 00:43:48;;;;;;;11.13;6.50;;;;;;;;;;4867205;29;20071;-70
2023/12/14 00:46:17;;;;;;;9.13;5.88;;;;;;;;;;4867038;29;20052;-70
2023/12/14 00:48:43;;;;;;;13.02;6.22;;;;;;;;;;4878921;29;20052;-70
2023/12/14 00:51:09;;;;;;;11.57;6.05;;;;;;;;;;4862438;29;20447;-70
2023/12/14 00:53:35;;;;;;;15.10;7.05;;;;;;;;;;4861133;29;20046;-70
2023/12/14 00:56:01;;;;;;;10.68;6.55;;;;;;;;;;4862665;29;20045;-70
2023/12/14 00:58:27;;;;;;;11.63;6.45;;;;;;;;;;4861529;29;20496;-70
2023/12/14 01:00:54;;;;;;;12.70;6.20;;;;;;;;;;4865743;29;20048;-70
2023/12/14 01:03:23;;;;;;;13.10;6.50;;;;;;;;;;4863095;29;20057;-70
2023/12/14 01:05:49;;;;;;;18.15;6.32;;;;;;;;;;4870917;29;20072;-70
2023/12/14 01:08:15;;;;;;;10.63;5.95;;;;;;;;;;4869000;29;20049;-70
2023/12/14 01:10:41;;;;;;;10.30;6.35;;;;;;;;;;4842563;29;20410;-70
2023/12/14 01:13:07;;;;;;;13.00;6.18;;;;;;;;;;4863953;29;20089;-70
2023/12/14 01:15:36;;;;;;;12.05;6.60;;;;;;;;;;4866462;29;20057;-70
2023/12/14 01:18:02;;;;;;;11.73;5.70;;;;;;;;;;4871207;29;20060;-70
2023/12/14 01:20:29;;;;;;;13.07;6.68;;;;;;;;;;4867417;29;20562;-70
2023/12/14 01:22:55;;;;;;;17.13;6.53;;;;;;;;;;4861866;29;20399;-70
2023/12/14 01:25:21;;;;;;;14.52;6.20;;;;;;;;;;4859885;29;20053;-70
2023/12/14 01:27:47;;;;;;;11.85;7.03;;;;;;;;;;4863566;29;20053;-70
2023/12/14 01:30:13;;;;;;;13.00;7.32;;;;;;;;;;4857105;29;20073;-70
2023/12/14 01:32:39;;;;;;;12.25;7.35;;;;;;;;;;4866268;29;20101;-70
2023/12/14 01:35:05;;;;;;;13.35;7.13;;;;;;;;;;4860463;29;20045;-70
2023/12/14 01:37:31;;;;;;;12.90;6.85;;;;;;;;;;4866566;29;20053;-70
2023/12/14 01:39:57;;;;;;;11.40;6.68;;;;;;;;;;4863705;29;20442;-70
2023/12/14 01:42:23;;;;;;;9.75;6.47;;;;;;;;;;4861450;29;20046;-70
2023/12/14 01:44:49;;;;;;;13.00;6.55;;;;;;;;;;4859979;29;20425;-70
2023/12/14 01:47:17;;;;;;;13.93;7.18;;;;;;;;;;4865959;29;20048;-70
2023/12/14 01:49:43;;;;;;;13.20;7.20;;;;;;;;;;4864344;29;20057;-70
2023/12/14 01:52:09;;;;;;;13.10;7.32;;;;;;;;;;4876414;29;20061;-70
2023/12/14 01:54:35;;;;;;;14.88;7.22;;;;;;;;;;4880432;29;20049;-70
2023/12/14 01:57:04;;;;;;;10.48;7.35;;;;;;;;;;4876382;29;20056;-70
2023/12/14 01:59:30;;;;;;;13.90;7.40;;;;;;;;;;4877327;29;20576;-70
2023/12/14 02:01:57;;;;;;;13.48;7.32;;;;;;;;;;4873408;29;20048;-70
2023/12/14 02:04:24;;;;;;;13.35;7.20;;;;;;;;;;4878052;29;20453;-70
2023/12/14 02:06:51;;;;;;;10.52;7.35;;;;;;;;;;4884804;29;20503;-70
2023/12/14 02:09:17;;;;;;;13.65;7.70;;;;;;;;;;4886392;29;20104;-70
2023/12/14 02:11:43;;;;;;;15.95;7.82;;;;;;;;;;4879112;29;20056;-70
2023/12/14 02:14:10;;;;;;;14.02;8.50;;;;;;;;;;4880769;29;20047;-70
2023/12/14 02:16:38;;;;;;;15.88;8.68;;;;;;;;;;4874063;29;20132;-70
2023/12/14 02:19:04;;;;;;;12.73;7.65;;;;;;;;;;4868233;29;20490;-70
2023/12/14 02:21:30;;;;;;;14.50;8.38;;;;;;;;;;4886185;29;20481;-70
2023/12/14 02:23:56;;;;;;;13.02;7.68;;;;;;;;;;4867655;29;20059;-70
2023/12/14 02:26:22;;;;;;;11.90;7.85;;;;;;;;;;4866454;29;20045;-70
2023/12/14 02:28:48;;;;;;;12.13;7.57;;;;;;;;;;4869028;29;20067;-70
2023/12/14 02:31:18;;;;;;;13.70;7.60;;;;;;;;;;4877524;29;20048;-70
2023/12/14 02:33:44;;;;;;;12.98;7.53;;;;;;;;;;4893712;29;20056;-70
2023/12/14 02:36:13;;;;;;;12.20;7.20;;;;;;;;;;4878347;29;20412;-70
2023/12/14 02:38:39;;;;;;;17.27;7.85;;;;;;;;;;4866476;29;20108;-70
2023/12/14 02:41:05;;;;;;;12.18;7.05;;;;;;;;;;4870096;29;20059;-70
2023/12/14 02:43:31;;;;;;;11.55;7.20;;;;;;;;;;4871218;29;20060;-70
2023/12/14 02:46:01;;;;;;;13.48;7.55;;;;;;;;;;4862408;29;20084;-70
2023/12/14 02:48:29;;;;;;;15.18;7.93;;;;;;;;;;4862599;29;20072;-70
2023/12/14 02:50:55;;;;;;;14.95;7.65;;;;;;;;;;4863790;29;20460;-70
2023/12/14 02:53:22;;;;;;;13.63;7.28;;;;;;;;;;4859908;29;20148;-70
2023/12/14 02:55:48;;;;;;;10.93;7.20;;;;;;;;;;4861383;29;20576;-70
2023/12/14 02:58:14;;;;;;;14.80;7.63;;;;;;;;;;4867724;29;20187;-70
2023/12/14 03:00:40;;;;;;;14.65;7.40;;;;;;;;;;4864345;29;20665;-70
2023/12/14 03:03:18;;;;;;;13.50;7.32;;;;;;;;;;4864390;29;20049;-70
2023/12/14 03:05:44;;;;;;;14.65;7.63;;;;;;;;;;4870459;29;20060;-70
2023/12/14 03:08:13;;;;;;;15.77;8.48;;;;;;;;;;4867601;29;20044;-70
2023/12/14 03:10:39;;;;;;;14.80;7.50;;;;;;;;;;4855282;29;20063;-70
2023/12/14 03:13:05;;;;;;;13.80;7.82;;;;;;;;;;4864129;29;20073;-70
2023/12/14 03:15:31;;;;;;;12.43;7.63;;;;;;;;;;4869090;29;20161;-70
2023/12/14 03:17:57;;;;;;;11.90;8.02;;;;;;;;;;4868360;29;20057;-70
2023/12/14 03:20:23;;;;;;;11.18;7.55;;;;;;;;;;4873318;29;20045;-70
2023/12/14 03:22:52;;;;;;;11.45;7.47;;;;;;;;;;4864155;29;20041;-70
2023/12/14 03:25:18;;;;;;;17.15;8.27;;;;;;;;;;4865765;29;20378;-70
2023/12/14 03:27:44;;;;;;;14.65;7.70;;;;;;;;;;4861325;29;20048;-70
2023/12/14 03:30:11;;;;;;;13.20;7.55;;;;;;;;;;4863081;29;20041;-70
2023/12/14 03:32:37;;;;;;;15.82;7.78;;;;;;;;;;4861052;29;20096;-70
2023/12/14 03:35:08;;;;;;;13.50;6.93;;;;;;;;;;4871217;29;20099;-70
2023/12/14 03:37:34;;;;;;;9.65;7.10;;;;;;;;;;4867261;29;20089;-70
2023/12/14 03:40:00;;;;;;;16.60;8.90;;;;;;;;;;4861158;29;20052;-70
2023/12/14 03:42:26;;;;;;;16.25;8.38;;;;;;;;;;4864357;29;20156;-70
2023/12/14 03:44:52;;;;;;;14.93;8.63;;;;;;;;;;4863454;29;20116;-70
2023/12/14 03:47:18;;;;;;;14.38;8.45;;;;;;;;;;4864391;29;20462;-70
2023/12/14 03:49:49;;;;;;;16.17;8.20;;;;;;;;;;4861143;29;20483;-70
2023/12/14 03:52:15;;;;;;;16.25;8.60;;;;;;;;;;4863331;29;20125;-70
2023/12/14 03:54:41;;;;;;;14.15;8.35;;;;;;;;;;4857386;29;20454;-69
2023/12/14 03:57:07;;;;;;;13.88;8.65;;;;;;;;;;4867262;29;20219;-70
2023/12/14 03:59:33;;;;;;;15.50;8.93;;;;;;;;;;4861047;29;20167;-70
2023/12/14 04:01:59;;;;;;;14.38;8.38;;;;;;;;;;4859271;29;20092;-70
2023/12/14 04:04:25;;;;;;;14.27;9.25;;;;;;;;;;4866575;29;20049;-70
2023/12/14 04:06:51;;;;;;;13.63;9.30;;;;;;;;;;4862793;29;20050;-70
2023/12/14 04:09:17;;;;;;;17.35;8.73;;;;;;;;;;4868990;29;20067;-70
2023/12/14 04:11:43;;;;;;;13.70;8.63;;;;;;;;;;4859054;29;20384;-70
2023/12/14 04:14:10;;;;;;;16.35;8.90;;;;;;;;;;4860408;29;20041;-70
2023/12/14 04:16:36;;;;;;;15.82;8.07;;;;;;;;;;4858809;29;20157;-70
2023/12/14 04:19:02;;;;;;;13.70;7.93;;;;;;;;;;4863409;29;20064;-70
2023/12/14 04:21:28;;;;;;;16.85;8.55;;;;;;;;;;4877336;29;20056;-70
2023/12/14 04:23:54;;;;;;;15.52;8.70;;;;;;;;;;4871497;29;20049;-70
2023/12/14 04:26:23;;;;;;;15.65;8.95;;;;;;;;;;4871086;29;20088;-70
2023/12/14 04:28:50;;;;;;;17.48;9.18;;;;;;;;;;4872812;29;20057;-70
2023/12/14 04:31:16;;;;;;;16.27;8.57;;;;;;;;;;4866305;29;20060;-70
2023/12/14 04:33:45;;;;;;;14.88;8.60;;;;;;;;;;4867906;29;20048;-70
2023/12/14 04:36:11;;;;;;;12.15;8.55;;;;;;;;;;4871064;29;20177;-70
2023/12/14 04:38:37;;;;;;;14.10;9.07;;;;;;;;;;4866765;29;20558;-70
2023/12/14 04:41:04;;;;;;;15.02;9.43;;;;;;;;;;4869384;29;20136;-70
2023/12/14 04:43:32;;;;;;;17.15;9.13;;;;;;;;;;4866575;29;20054;-70
2023/12/14 04:45:58;;;;;;;15.80;9.45;;;;;;;;;;4866682;29;20409;-70
2023/12/14 04:48:24;;;;;;;12.25;9.30;;;;;;;;;;4859994;29;20045;-70
2023/12/14 04:50:50;;;;;;;14.85;8.65;;;;;;;;;;4867255;29;20057;-70
2023/12/14 04:53:19;;;;;;;13.75;9.55;;;;;;;;;;4865020;29;20053;-70
2023/12/14 04:55:45;;;;;;;15.18;9.85;;;;;;;;;;4868793;29;20067;-70
2023/12/14 04:58:11;;;;;;;16.30;9.90;;;;;;;;;;4850641;29;20053;-70
2023/12/14 05:00:37;;;;;;;18.95;11.05;;;;;;;;;;4871869;29;20140;-70
2023/12/14 05:03:03;;;;;;;20.35;10.13;;;;;;;;;;4868507;29;20049;-70
2023/12/14 05:05:29;;;;;;;18.27;9.95;;;;;;;;;;4874780;29;20045;-70
2023/12/14 05:07:55;;;;;;;19.98;10.13;;;;;;;;;;4870638;29;20185;-70
2023/12/14 05:10:21;;;;;;;16.92;9.52;;;;;;;;;;4879270;29;20129;-70
2023/12/14 05:12:47;;;;;;;17.23;9.73;;;;;;;;;;4866442;29;20522;-70
2023/12/14 05:15:16;;;;;;;19.42;9.57;;;;;;;;;;4863403;29;20053;-70
2023/12/14 05:17:42;;;;;;;18.40;9.07;;;;;;;;;;4878330;29;20048;-70
2023/12/14 05:20:08;;;;;;;15.60;9.27;;;;;;;;;;4864089;29;20187;-70
2023/12/14 05:22:34;;;;;;;14.43;8.48;;;;;;;;;;4861642;29;20060;-70
2023/12/14 05:25:04;;;;;;;18.85;8.75;;;;;;;;;;4862127;29;20597;-70
2023/12/14 05:27:36;;;;;;;15.55;9.05;;;;;;;;;;4867529;29;20482;-70
2023/12/14 05:30:02;;;;;;;17.85;9.93;;;;;;;;;;4847011;29;20056;-70
2023/12/14 05:32:29;;;;;;;17.10;8.98;;;;;;;;;;4858677;29;20084;-70
2023/12/14 05:34:55;;;;;;;17.35;8.75;;;;;;;;;;4867475;29;20056;-70
2023/12/14 05:37:21;;;;;;;18.25;9.18;;;;;;;;;;4862116;29;20040;-70
2023/12/14 05:39:47;;;;;;;17.10;9.40;;;;;;;;;;4870189;29;20054;-70
2023/12/14 05:42:17;;;;;;;19.00;9.55;;;;;;;;;;4862500;29;20076;-70
2023/12/14 05:44:44;;;;;;;19.15;9.60;;;;;;;;;;4866771;29;20130;-70
2023/12/14 05:47:20;;;;;;;17.80;9.70;;;;;;;;;;4867099;29;20103;-70
2023/12/14 05:49:48;;;;;;;20.25;9.90;;;;;;;;;;4867324;29;20486;-70
2023/12/14 05:52:14;;;;;;;19.90;10.15;;;;;;;;;;4865041;29;20117;-70
2023/12/14 05:54:40;;;;;;;20.42;9.30;;;;;;;;;;4860309;29;20406;-70
2023/12/14 05:57:06;;;;;;;15.82;10.18;;;;;;;;;;4861367;29;20048;-70
2023/12/14 05:59:33;;;;;;;19.13;10.80;;;;;;;;;;4865725;29;20065;-70
2023/12/14 06:02:01;;;;;;;13.73;9.00;;;;;;;;;;4862421;29;20049;-70
2023/12/14 06:04:31;;;;;;;17.45;9.57;;;;;;;;;;4873019;29;20064;-70
2023/12/14 06:07:03;;;;;;;17.80;10.05;;;;;;;;;;4870302;29;20124;-70
2023/12/14 06:09:34;;;;;;;17.50;10.27;;;;;;;;;;4875009;29;20437;-70
2023/12/14 06:12:04;;;;;;;18.67;10.27;;;;;;;;;;4861370;29;20056;-70
2023/12/14 06:14:30;;;;;;;21.20;12.40;;;;;;;;;;4873266;29;20052;-70
2023/12/14 06:16:56;;;;;;;19.40;11.38;;;;;;;;;;4880667;29;20057;-70
2023/12/14 06:19:22;;;;;;;23.42;11.82;;;;;;;;;;4864987;29;20079;-70
2023/12/14 06:21:48;;;;;;;22.75;11.15;;;;;;;;;;4862519;29;20058;-70
2023/12/14 06:24:14;;;;;;;19.52;10.35;;;;;;;;;;4876452;29;20045;-70
2023/12/14 06:26:42;;;;;;;18.38;10.63;;;;;;;;;;4878762;29;20121;-70
2023/12/14 06:29:09;;;;;;;19.23;11.15;;;;;;;;;;4860970;29;20045;-70
2023/12/14 06:31:41;;;;;;;16.33;10.10;;;;;;;;;;4863849;29;20049;-71
2023/12/14 06:34:10;;;;;;;21.75;11.20;;;;;;;;;;4865818;29;20059;-71
2023/12/14 06:36:36;;;;;;;20.10;10.40;;;;;;;;;;4865073;29;20087;-71
2023/12/14 06:39:03;;;;;;;17.30;10.07;;;;;;;;;;4870199;29;20478;-71
2023/12/14 06:41:32;;;;;;;20.40;11.02;;;;;;;;;;4870690;29;20072;-70
2023/12/14 06:43:58;;;;;;;17.30;9.75;;;;;;;;;;4866215;29;20167;-70
2023/12/14 06:46:30;;;;;;;18.00;10.15;;;;;;;;;;4867956;29;21837;-70
2023/12/14 06:48:56;;;;;;;19.20;10.68;;;;;;;;;;4869761;29;20508;-70
2023/12/14 06:51:22;;;;;;;19.50;11.45;;;;;;;;;;4861035;29;20061;-70
2023/12/14 06:53:48;;;;;;;22.10;11.48;;;;;;;;;;4860537;29;20052;-70
2023/12/14 06:56:15;;;;;;;16.55;10.15;;;;;;;;;;4861949;29;20064;-70
2023/12/14 06:58:42;;;;;;;18.92;11.40;;;;;;;;;;4857522;29;20497;-70
2023/12/14 07:01:09;;;;;;;20.55;10.82;;;;;;;;;;4860121;29;20044;-70
2023/12/14 07:03:35;;;;;;;23.40;10.75;;;;;;;;;;4872771;29;20121;-70
2023/12/14 07:06:01;;;;;;;20.35;11.07;;;;;;;;;;4871417;29;20076;-70
2023/12/14 07:08:27;;;;;;;22.45;10.38;;;;;;;;;;4859422;29;20060;-70
2023/12/14 07:10:53;;;;;;;61.08;14.32;;;;;;;;;;4865576;29;20053;-71
2023/12/14 07:13:19;;;;;;;32.10;12.13;;;;;;;;;;4864797;29;20056;-72
2023/12/14 07:15:45;;;;;;;23.15;11.15;;;;;;;;;;4870158;29;20054;-71
2023/12/14 07:18:11;;;;;;;19.67;11.90;;;;;;;;;;4861228;29;20044;-71
2023/12/14 07:20:37;;;;;;;20.08;11.23;;;;;;;;;;4875195;29;20053;-71
2023/12/14 07:23:03;;;;;;;22.63;10.02;;;;;;;;;;4864808;29;20045;-71
2023/12/14 07:25:29;;;;;;;20.42;11.52;;;;;;;;;;4867275;29;20533;-70
2023/12/14 07:28:01;;;;;;;19.88;11.27;;;;;;;;;;4872239;29;20351;-70
2023/12/14 07:30:27;;;;;;;16.67;10.55;;;;;;;;;;4867718;29;20064;-71
2023/12/14 07:32:55;;;;;;;20.42;10.93;;;;;;;;;;4871049;29;20045;-71
2023/12/14 07:35:21;;;;;;;15.15;10.55;;;;;;;;;;4881883;29;20394;-71
2023/12/14 07:37:47;;;;;;;20.17;11.68;;;;;;;;;;4876959;29;20498;-71
2023/12/14 07:40:13;;;;;;;19.98;10.80;;;;;;;;;;4865963;29;20056;-71
2023/12/14 07:42:39;;;;;;;21.42;11.57;;;;;;;;;;4860918;29;20045;-71
2023/12/14 07:45:06;;;;;;;21.58;11.25;;;;;;;;;;4869060;29;20056;-71
2023/12/14 07:47:32;;;;;;;20.33;11.38;;;;;;;;;;4868884;29;20045;-71
2023/12/14 07:49:58;;;;;;;20.40;11.30;;;;;;;;;;4869366;29;20082;-72
2023/12/14 07:52:24;;;;;;;18.58;11.48;;;;;;;;;;4884623;29;20072;-71
2023/12/14 07:54:50;;;;;;;18.45;11.73;;;;;;;;;;4870505;29;20498;-71
2023/12/14 07:57:19;;;;;;;23.88;11.63;;;;;;;;;;4866776;29;20048;-71
2023/12/14 07:59:50;;;;;;;20.88;11.68;;;;;;;;;;4867104;29;20048;-71
2023/12/14 08:02:16;;;;;;;20.55;11.73;;;;;;;;;;4863954;29;20192;-72
2023/12/14 08:04:42;;;;;;;21.90;11.32;;;;;;;;;;4874495;29;20135;-72
2023/12/14 08:07:08;;;;;;;19.02;10.52;;;;;;;;;;4865689;29;20536;-72
2023/12/14 08:09:34;;;;;;;19.25;11.02;;;;;;;;;;4868649;29;20184;-71
2023/12/14 08:12:00;;;;;;;20.98;10.45;;;;;;;;;;4896816;29;20159;-72
2023/12/14 08:14:29;;;;;;;18.08;10.48;;;;;;;;;;4876360;29;20413;-72
2023/12/14 08:16:55;;;;;;;18.85;10.95;;;;;;;;;;4877551;29;20052;-71
2023/12/14 08:19:22;;;;;;;22.20;10.63;;;;;;;;;;4878532;29;20052;-71
2023/12/14 08:21:48;;;;;;;18.75;10.30;;;;;;;;;;4876836;29;20053;-72
2023/12/14 08:24:16;;;;;;;16.83;10.48;;;;;;;;;;4861211;29;20048;-71
2023/12/14 08:26:42;;;;;;;18.17;11.02;;;;;;;;;;4881921;29;20131;-72
2023/12/14 08:29:09;;;;;;;17.48;9.23;;;;;;;;;;4891360;29;20180;-71
2023/12/14 08:31:35;;;;;;;21.70;10.77;;;;;;;;;;4871736;29;20048;-72
2023/12/14 08:34:01;;;;;;;23.17;11.05;;;;;;;;;;4866296;29;20547;-72
2023/12/14 08:36:27;;;;;;;22.98;10.90;;;;;;;;;;4861798;29;20108;-72
2023/12/14 08:38:56;;;;;;;15.40;9.82;;;;;;;;;;4865892;29;20120;-72
2023/12/14 08:41:22;;;;;;;17.83;10.77;;;;;;;;;;4869548;29;20071;-71
2023/12/14 08:43:48;;;;;;;22.15;11.18;;;;;;;;;;4867827;29;20418;-72
2023/12/14 08:46:14;;;;;;;20.02;10.93;;;;;;;;;;4872609;29;20405;-72
2023/12/14 08:48:40;;;;;;;20.00;11.07;;;;;;;;;;4870551;29;20048;-72
2023/12/14 08:51:06;;;;;;;22.65;10.95;;;;;;;;;;4863433;29;20060;-71
2023/12/14 08:53:32;;;;;;;19.02;11.68;;;;;;;;;;4867665;29;20044;-72
2023/12/14 08:55:58;;;;;;;22.67;11.32;;;;;;;;;;4880887;29;20482;-72
2023/12/14 08:58:24;;;;;;;20.63;10.52;;;;;;;;;;4860304;29;20424;-71
2023/12/14 09:00:53;;;;;;;21.80;10.88;;;;;;;;;;4866613;29;20060;-71
2023/12/14 09:03:19;;;;;;;21.55;10.07;;;;;;;;;;4861335;29;20053;-72
2023/12/14 09:05:45;;;;;;;24.42;11.65;;;;;;;;;;4866335;29;20139;-71
2023/12/14 09:08:12;;;;;;;19.30;10.75;;;;;;;;;;4862833;29;20231;-71
2023/12/14 09:10:39;;;;;;;17.60;10.27;;;;;;;;;;4879607;29;20052;-72
2023/12/14 09:13:05;;;;;;;22.77;10.40;;;;;;;;;;4881413;29;20048;-71
2023/12/14 09:15:34;;;;;;;19.63;11.60;;;;;;;;;;4891657;29;20138;-71
2023/12/14 09:18:01;;;;;;;20.80;10.55;;;;;;;;;;4898276;29;20084;-71
2023/12/14 09:20:31;;;;;;;22.38;10.80;;;;;;;;;;4864280;29;20049;-71
2023/12/14 09:22:57;;;;;;;16.90;10.40;;;;;;;;;;4861406;29;20581;-71
2023/12/14 09:25:24;;;;;;;22.90;11.70;;;;;;;;;;4882046;29;20426;-72
2023/12/14 09:27:50;;;;;;;18.20;9.73;;;;;;;;;;4866771;29;20473;-71
2023/12/14 09:30:17;;;;;;;16.13;9.82;;;;;;;;;;4863731;29;20475;-71
2023/12/14 09:32:43;;;;;;;17.65;10.32;;;;;;;;;;4882929;29;20402;-71
2023/12/14 09:35:09;;;;;;;18.42;9.20;;;;;;;;;;4869690;29;20041;-72
2023/12/14 09:37:35;;;;;;;14.98;8.63;;;;;;;;;;4869742;29;20040;-71
2023/12/14 09:40:05;;;;;;;16.60;9.18;;;;;;;;;;4871281;29;20478;-71
2023/12/14 09:42:37;;;;;;;13.88;8.60;;;;;;;;;;4874025;29;20459;-71
2023/12/14 09:45:03;;;;;;;17.75;8.38;;;;;;;;;;4874433;29;20461;-71
2023/12/14 09:47:29;;;;;;;18.67;8.57;;;;;;;;;;4885774;29;20045;-71
2023/12/14 09:49:55;;;;;;;14.38;7.47;;;;;;;;;;4875939;29;20546;-72
2023/12/14 09:52:21;;;;;;;17.63;8.18;;;;;;;;;;4863324;29;20137;-71
2023/12/14 09:54:47;;;;;;;16.85;7.65;;;;;;;;;;4868742;29;20072;-71
2023/12/14 09:57:13;;;;;;;16.13;7.88;;;;;;;;;;4869013;29;20045;-71
2023/12/14 09:59:39;;;;;;;15.80;7.30;;;;;;;;;;4892444;29;20128;-71
2023/12/14 10:02:09;;;;;;;16.80;7.22;;;;;;;;;;4870930;29;20057;-71
2023/12/14 10:04:36;;;;;;;14.10;8.50;;;;;;;;;;4886272;29;20049;-71
2023/12/14 10:07:07;;;;;;;14.85;7.78;;;;;;;;;;4874563;29;20044;-71
2023/12/14 10:09:37;;;;;;;14.25;7.32;;;;;;;;;;4874855;29;20048;-71
2023/12/14 10:12:07;;;;;;;14.90;7.43;;;;;;;;;;4878676;29;20124;-71
2023/12/14 10:14:34;;;;;;;14.32;7.50;;;;;;;;;;4878688;29;20458;-72
2023/12/14 10:17:37;;;;;;;14.18;7.15;;;;;;;;;;4895108;29;20049;-71
2023/12/14 10:20:04;;;;;;;13.52;7.43;;;;;;;;;;4876754;29;20080;-71
2023/12/14 10:22:32;;;;;;;14.63;7.63;;;;;;;;;;4877071;29;20524;-71
2023/12/14 10:24:59;;;;;;;19.27;8.77;;;;;;;;;;4878450;29;20056;-72
2023/12/14 10:27:25;;;;;;;18.65;9.60;;;;;;;;;;4873076;29;20060;-71
2023/12/14 10:29:51;;;;;;;17.73;8.55;;;;;;;;;;4867056;29;20051;-71
2023/12/14 10:32:23;;;;;;;21.33;9.77;;;;;;;;;;4868631;29;20045;-71
2023/12/14 10:34:49;;;;;;;16.08;8.75;;;;;;;;;;4875197;29;20080;-71
2023/12/14 10:37:16;;;;;;;17.83;8.13;;;;;;;;;;4893833;29;20465;-71
2023/12/14 10:39:45;;;;;;;14.15;7.97;;;;;;;;;;4867579;29;20390;-71
2023/12/14 10:42:13;;;;;;;13.88;7.90;;;;;;;;;;4866952;29;20040;-71
2023/12/14 10:44:41;;;;;;;21.55;9.07;;;;;;;;;;4873776;29;20044;-71
2023/12/14 10:47:08;;;;;;;17.25;8.73;;;;;;;;;;4875902;29;20493;-71
2023/12/14 10:49:35;;;;;;;14.13;8.05;;;;;;;;;;4873102;29;20089;-71
2023/12/14 10:52:02;;;;;;;17.65;8.70;;;;;;;;;;4867218;29;20085;-71
2023/12/14 10:54:29;;;;;;;15.35;8.20;;;;;;;;;;4873312;29;20067;-71
2023/12/14 10:56:58;;;;;;;15.75;7.85;;;;;;;;;;4872079;29;20506;-71
2023/12/14 10:59:25;;;;;;;17.10;7.90;;;;;;;;;;4868929;29;20075;-71
2023/12/14 11:01:54;;;;;;;18.15;8.00;;;;;;;;;;4870314;29;20049;-71
2023/12/14 11:04:24;;;;;;;14.60;7.80;;;;;;;;;;4885498;29;20148;-71
2023/12/14 11:06:50;;;;;;;14.35;7.90;;;;;;;;;;4862477;29;20056;-71
2023/12/14 11:09:18;;;;;;;14.10;8.40;;;;;;;;;;4863665;29;20406;-71
2023/12/14 11:11:56;;;;;;;13.60;7.15;;;;;;;;;;4863095;29;20393;-71
2023/12/14 11:14:23;;;;;;;15.77;7.70;;;;;;;;;;4872734;29;20112;-71
2023/12/14 11:16:49;;;;;;;15.60;6.85;;;;;;;;;;4871687;29;20084;-71
2023/12/14 11:19:21;;;;;;;10.15;6.50;;;;;;;;;;4871937;29;20093;-71
2023/12/14 11:21:48;;;;;;;12.50;6.25;;;;;;;;;;4882484;29;20064;-71
2023/12/14 11:24:14;;;;;;;11.18;6.50;;;;;;;;;;4863675;29;20053;-71
2023/12/14 11:26:40;;;;;;;11.50;6.05;;;;;;;;;;4861276;29;20136;-71
2023/12/14 11:29:07;;;;;;;13.65;6.90;;;;;;;;;;4879316;29;20060;-71
2023/12/14 11:31:35;;;;;;;11.98;6.72;;;;;;;;;;4866172;29;20041;-71
2023/12/14 11:34:07;;;;;;;14.48;8.48;;;;;;;;;;4872511;29;20049;-71
2023/12/14 11:36:33;;;;;;;15.73;8.93;;;;;;;;;;4862026;29;20049;-70
2023/12/14 11:38:59;;;;;;;13.57;8.20;;;;;;;;;;4877369;29;20050;-71
2023/12/14 11:41:26;;;;;;;13.50;7.50;;;;;;;;;;4874222;29;20064;-71
2023/12/14 11:43:52;;;;;;;10.45;6.60;;;;;;;;;;4872957;29;20446;-70
2023/12/14 11:46:19;;;;;;;15.23;9.25;;;;;;;;;;4869454;29;20425;-70
2023/12/14 11:48:46;;;;;;;16.92;9.85;;;;;;;;;;4863169;29;20462;-70
2023/12/14 11:51:12;;;;;;;19.60;10.73;;;;;;;;;;4869345;29;20044;-70
2023/12/14 11:53:38;;;;;;;14.82;9.48;;;;;;;;;;4865263;29;20166;-78
2023/12/14 11:56:05;;;;;;;14.50;8.48;;;;;;;;;;4869366;29;20044;-71
2023/12/14 11:58:34;;;;;;;18.67;10.65;;;;;;;;;;4881567;29;20049;-71
2023/12/14 12:01:16;;;;;;;14.77;11.02;;;;;;;;;;4868886;29;20052;-71
2023/12/14 12:03:43;;;;;;;14.30;7.88;;;;;;;;;;4868945;29;20489;-70
2023/12/14 12:06:32;;;;;;;15.10;9.45;;;;;;;;;;4886572;29;20044;-70
2023/12/14 12:08:58;;;;;;;15.57;11.50;;;;;;;;;;4870633;29;20068;-69
2023/12/14 12:11:27;;;;;;;17.30;10.25;;;;;;;;;;4884795;29;20096;-71
2023/12/14 12:13:59;;;;;;;14.23;8.90;;;;;;;;;;4899041;29;20080;-70
2023/12/14 12:16:25;;;;;;;14.60;11.02;;;;;;;;;;4871479;29;20056;-70
2023/12/14 12:18:55;;;;;;;13.18;8.25;;;;;;;;;;4866317;29;20650;-70
2023/12/14 12:21:21;;;;;;;12.05;7.00;;;;;;;;;;4884977;29;20048;-70
2023/12/14 12:23:47;;;;;;;13.48;7.53;;;;;;;;;;4868523;29;20393;-70
2023/12/14 12:26:13;;;;;;;12.60;7.88;;;;;;;;;;4864682;29;20485;-71
2023/12/14 12:28:39;;;;;;;13.43;7.38;;;;;;;;;;4872028;29;20048;-69
2023/12/14 12:31:05;;;;;;;12.57;7.10;;;;;;;;;;4871637;29;20100;-69
2023/12/14 12:33:37;;;;;;;10.15;6.90;;;;;;;;;;4863464;29;20049;-69
2023/12/14 12:36:03;;;;;;;13.63;7.45;;;;;;;;;;4862230;29;20108;-69
2023/12/14 12:38:29;;;;;;;15.13;7.72;;;;;;;;;;4865668;29;20097;-70
2023/12/14 12:40:55;;;;;;;14.10;7.40;;;;;;;;;;4879244;29;20049;-69
2023/12/14 12:43:24;;;;;;;11.75;8.40;;;;;;;;;;4865248;29;20084;-69
2023/12/14 12:45:50;;;;;;;12.50;7.97;;;;;;;;;;4870763;29;20401;-70
2023/12/14 12:48:16;;;;;;;14.07;6.82;;;;;;;;;;4869836;29;20056;-70
2023/12/14 12:50:42;;;;;;;12.18;7.22;;;;;;;;;;4872882;29;20108;-70
2023/12/14 12:53:08;;;;;;;10.73;6.90;;;;;;;;;;4874712;29;20052;-71
2023/12/14 12:55:40;;;;;;;11.20;6.40;;;;;;;;;;4863362;29;20105;-70
2023/12/14 12:58:06;;;;;;;13.93;7.10;;;;;;;;;;4866021;29;20064;-70
2023/12/14 13:00:35;;;;;;;15.25;7.07;;;;;;;;;;4867709;29;20049;-70
2023/12/14 13:03:04;;;;;;;14.35;7.85;;;;;;;;;;4880983;29;20395;-70
2023/12/14 13:05:30;;;;;;;13.02;7.78;;;;;;;;;;4886362;29;20084;-71
2023/12/14 13:07:57;;;;;;;12.98;7.85;;;;;;;;;;4874207;29;20128;-69
2023/12/14 13:10:26;;;;;;;12.40;7.68;;;;;;;;;;4862945;29;20048;-70
2023/12/14 13:12:53;;;;;;;11.18;7.53;;;;;;;;;;4872053;29;20092;-70
2023/12/14 13:15:19;;;;;;;12.80;7.80;;;;;;;;;;4868753;29;20132;-70
2023/12/14 13:17:45;;;;;;;11.18;7.43;;;;;;;;;;4865287;29;20355;-70
2023/12/14 13:20:11;;;;;;;13.80;8.38;;;;;;;;;;4865695;29;20110;-69
2023/12/14 13:22:37;;;;;;;14.25;8.10;;;;;;;;;;4870158;29;20456;-70
2023/12/14 13:25:03;;;;;;;14.05;7.88;;;;;;;;;;4866757;29;20045;-69
2023/12/14 13:27:36;;;;;;;13.43;8.00;;;;;;;;;;4864057;29;20486;-69
2023/12/14 13:30:02;;;;;;;12.13;7.88;;;;;;;;;;4881695;29;20048;-69
2023/12/14 13:32:29;;;;;;;14.90;8.68;;;;;;;;;;4866529;29;20065;-69
2023/12/14 13:34:55;;;;;;;13.43;7.80;;;;;;;;;;4880007;29;20037;-72
2023/12/14 13:37:21;;;;;;;10.63;7.57;;;;;;;;;;4877307;29;20112;-72
2023/12/14 13:39:48;;;;;;;15.35;8.30;;;;;;;;;;4866035;29;20773;-69
2023/12/14 13:42:15;;;;;;;15.25;8.63;;;;;;;;;;4881329;29;20400;-69
2023/12/14 13:44:41;;;;;;;14.10;8.82;;;;;;;;;;4888165;29;20044;-69
2023/12/14 13:47:07;;;;;;;13.35;8.20;;;;;;;;;;4886177;29;20041;-69
2023/12/14 13:49:34;;;;;;;15.73;9.30;;;;;;;;;;4874952;29;20131;-70
2023/12/14 13:52:00;;;;;;;15.82;9.38;;;;;;;;;;4882595;29;20060;-69
2023/12/14 13:54:26;;;;;;;13.80;9.10;;;;;;;;;;4876899;29;20063;-70
2023/12/14 13:56:53;;;;;;;13.07;8.38;;;;;;;;;;4877257;29;20045;-69
2023/12/14 13:59:19;;;;;;;15.23;8.63;;;;;;;;;;4874748;29;20131;-69
2023/12/14 14:01:45;;;;;;;14.00;9.57;;;;;;;;;;4862426;29;20052;-70
2023/12/14 14:04:14;;;;;;;15.23;9.52;;;;;;;;;;4871128;29;20044;-69
2023/12/14 14:06:40;;;;;;;20.50;10.25;;;;;;;;;;4874492;29;20157;-69
2023/12/14 14:09:10;;;;;;;19.58;10.38;;;;;;;;;;4877710;29;20463;-68
2023/12/14 14:11:36;;;;;;;18.23;10.68;;;;;;;;;;4879377;29;20327;-69
2023/12/14 14:14:03;;;;;;;17.73;9.85;;;;;;;;;;4891041;29;20183;-69
2023/12/14 14:16:31;;;;;;;20.95;10.90;;;;;;;;;;4884336;29;20056;-69
2023/12/14 14:18:57;;;;;;;19.25;10.35;;;;;;;;;;4874435;29;20045;-69
2023/12/14 14:21:23;;;;;;;14.70;9.70;;;;;;;;;;4893101;29;20056;-69
2023/12/14 14:23:49;;;;;;;17.65;10.60;;;;;;;;;;4891705;29;20105;-70
2023/12/14 14:26:15;;;;;;;15.38;10.20;;;;;;;;;;4881857;29;20482;-69